Time;durP1;ratioP1;P1;durP2;ratioP2;P2;SDS_P1;SDS_P2;PMS_P1;PMS_P2;Temp;Humidity;BMP_temperature;BMP_pressure;BME280_temperature;BME280_humidity;BME280_pressure;Samples;Min_cycle;Max_cycle;Signal;HPM_P1;HPM_P2
2023/07/11 00:00:54;;;;;;;3.08;1.70;;;18.90;99.90;;;;;;5072371;28;20400;-68
2023/07/11 00:03:20;;;;;;;8.98;2.58;;;18.90;99.90;;;;;;5073028;28;20495;-68
2023/07/11 00:06:01;;;;;;;2.65;1.63;;;18.90;99.90;;;;;;5072941;28;20048;-68
2023/07/11 00:08:27;;;;;;;5.45;1.73;;;18.90;99.90;;;;;;5072838;28;20040;-68
2023/07/11 00:10:52;;;;;;;3.53;1.48;;;18.90;99.90;;;;;;5072463;28;20587;-68
2023/07/11 00:13:18;;;;;;;8.68;2.45;;;18.90;99.90;;;;;;5072574;28;20111;-69
2023/07/11 00:15:44;;;;;;;3.83;1.63;;;19.00;99.90;;;;;;5072540;28;20048;-68
2023/07/11 00:18:09;;;;;;;4.13;1.92;;;19.00;99.90;;;;;;5088084;28;20119;-68
2023/07/11 00:20:35;;;;;;;6.00;1.50;;;18.90;99.90;;;;;;5072366;28;20043;-69
2023/07/11 00:23:00;;;;;;;4.03;1.42;;;18.90;99.90;;;;;;5072473;28;20411;-68
2023/07/11 00:25:26;;;;;;;5.90;1.55;;;18.90;99.90;;;;;;5072714;28;20477;-68
2023/07/11 00:27:51;;;;;;;5.10;1.60;;;18.90;99.90;;;;;;5072266;28;20416;-68
2023/07/11 00:30:17;;;;;;;5.25;1.88;;;18.90;99.90;;;;;;5072360;28;20040;-68
2023/07/11 00:32:42;;;;;;;2.72;1.40;;;18.80;99.90;;;;;;5072099;28;20034;-68
2023/07/11 00:35:08;;;;;;;4.15;1.45;;;18.80;99.90;;;;;;5072457;28;20554;-68
2023/07/11 00:37:34;;;;;;;4.82;1.88;;;18.80;99.90;;;;;;5072134;28;20135;-68
2023/07/11 00:40:00;;;;;;;3.20;1.40;;;18.80;99.90;;;;;;5072435;28;20476;-68
2023/07/11 00:42:25;;;;;;;3.45;1.77;;;18.80;99.90;;;;;;5071625;28;20068;-69
2023/07/11 00:45:03;;;;;;;6.47;2.00;;;18.80;99.90;;;;;;5071973;28;20125;-69
2023/07/11 00:47:30;;;;;;;3.42;1.42;;;18.70;99.90;;;;;;5072105;28;20079;-69
2023/07/11 00:50:06;;;;;;;4.15;1.60;;;18.80;99.90;;;;;;5072275;28;20045;-68
2023/07/11 00:52:34;;;;;;;2.67;1.40;;;18.80;99.90;;;;;;5071450;28;20520;-69
2023/07/11 00:55:02;;;;;;;3.45;1.38;;;18.70;99.90;;;;;;5072022;28;20040;-69
2023/07/11 00:57:32;;;;;;;5.28;1.83;;;18.70;99.90;;;;;;5071718;28;20048;-68
2023/07/11 00:59:58;;;;;;;4.85;2.45;;;18.80;99.90;;;;;;5072229;28;20040;-68
2023/07/11 01:02:27;;;;;;;5.07;2.05;;;18.70;99.90;;;;;;5071549;28;20042;-68
2023/07/11 01:04:52;;;;;;;6.80;1.98;;;18.70;99.90;;;;;;5070602;28;20040;-69
2023/07/11 01:07:25;;;;;;;4.25;2.13;;;18.70;99.90;;;;;;5071551;28;20046;-69
2023/07/11 01:09:51;;;;;;;4.50;1.52;;;18.70;99.90;;;;;;5071868;28;20051;-68
2023/07/11 01:12:17;;;;;;;6.18;1.77;;;18.70;99.90;;;;;;5071546;28;20036;-68
2023/07/11 01:14:46;;;;;;;5.05;1.67;;;18.70;99.90;;;;;;5071729;28;20094;-69
2023/07/11 01:17:32;;;;;;;4.50;2.00;;;18.70;99.90;;;;;;5071503;28;20029;-67
2023/07/11 01:20:01;;;;;;;3.92;1.60;;;18.70;99.90;;;;;;5071704;28;20561;-68
2023/07/11 01:22:28;;;;;;;4.65;1.88;;;18.70;99.90;;;;;;5070982;28;20402;-69
2023/07/11 01:24:56;;;;;;;5.25;2.10;;;18.60;99.90;;;;;;5070494;28;20040;-68
2023/07/11 01:27:22;;;;;;;3.78;1.42;;;18.60;99.90;;;;;;5071209;28;20539;-68
2023/07/11 01:29:49;;;;;;;4.50;2.17;;;18.60;99.90;;;;;;5071654;28;20032;-69
2023/07/11 01:32:15;;;;;;;5.68;2.55;;;18.60;99.90;;;;;;5070917;28;20075;-69
2023/07/11 01:34:41;;;;;;;4.47;1.70;;;18.60;99.90;;;;;;5071361;28;20099;-68
2023/07/11 01:37:07;;;;;;;6.38;1.85;;;18.60;99.90;;;;;;5071712;28;20485;-68
2023/07/11 01:39:33;;;;;;;5.25;2.13;;;18.60;99.90;;;;;;5071205;28;20047;-69
2023/07/11 01:41:58;;;;;;;3.50;1.15;;;18.60;99.90;;;;;;5069780;28;20036;-68
2023/07/11 01:44:25;;;;;;;6.80;2.15;;;18.70;99.90;;;;;;5071214;28;20468;-68
2023/07/11 01:46:50;;;;;;;5.10;1.55;;;18.70;99.90;;;;;;5071515;28;20043;-69
2023/07/11 01:49:16;;;;;;;6.93;2.05;;;18.70;99.90;;;;;;5071559;28;20037;-68
2023/07/11 01:51:46;;;;;;;7.68;1.92;;;18.70;99.90;;;;;;5077387;28;20097;-68
2023/07/11 01:54:12;;;;;;;6.63;2.47;;;18.70;99.90;;;;;;5077622;28;20108;-68
2023/07/11 01:56:38;;;;;;;5.63;2.05;;;18.70;99.90;;;;;;5077667;28;20044;-68
2023/07/11 01:59:04;;;;;;;6.10;1.65;;;18.70;99.90;;;;;;5077521;28;20040;-68
2023/07/11 02:01:30;;;;;;;6.05;2.10;;;18.60;99.90;;;;;;5077547;28;20040;-68
2023/07/11 02:03:55;;;;;;;7.50;2.10;;;18.60;99.90;;;;;;5077733;28;20032;-68
2023/07/11 02:06:21;;;;;;;5.45;2.00;;;18.60;99.90;;;;;;5078105;28;20047;-68
2023/07/11 02:08:47;;;;;;;4.78;2.20;;;18.60;99.90;;;;;;5077782;28;20043;-69
2023/07/11 02:11:13;;;;;;;4.07;2.20;;;18.50;99.90;;;;;;5077314;28;20048;-69
2023/07/11 02:13:40;;;;;;;6.97;1.67;;;18.60;99.90;;;;;;5077883;28;20416;-68
2023/07/11 02:16:06;;;;;;;6.07;2.10;;;18.60;99.90;;;;;;5077787;28;20044;-69
2023/07/11 02:18:32;;;;;;;4.40;1.83;;;18.50;99.90;;;;;;5077456;28;20037;-69
2023/07/11 02:20:58;;;;;;;5.47;1.80;;;18.60;99.90;;;;;;5077583;28;20037;-68
2023/07/11 02:23:24;;;;;;;7.65;2.00;;;18.50;99.90;;;;;;5077706;28;20040;-68
2023/07/11 02:25:53;;;;;;;4.20;1.75;;;18.50;99.90;;;;;;5077826;28;20046;-68
2023/07/11 02:28:19;;;;;;;5.60;2.15;;;18.50;99.90;;;;;;5077388;28;20385;-69
2023/07/11 02:30:45;;;;;;;3.90;1.90;;;18.40;99.90;;;;;;5077394;28;20044;-69
2023/07/11 02:33:10;;;;;;;7.07;1.95;;;18.40;99.90;;;;;;5077439;28;20539;-69
2023/07/11 02:35:36;;;;;;;6.35;1.83;;;18.40;99.90;;;;;;5077735;28;20044;-68
2023/07/11 02:38:02;;;;;;;5.20;2.17;;;18.40;99.90;;;;;;5077459;28;20032;-68
2023/07/11 02:40:27;;;;;;;8.38;2.05;;;18.30;99.90;;;;;;5077231;28;20082;-68
2023/07/11 02:42:53;;;;;;;5.28;1.55;;;18.30;99.90;;;;;;5077401;28;20036;-69
2023/07/11 02:45:18;;;;;;;5.32;1.80;;;18.30;99.90;;;;;;5076340;28;20036;-69
2023/07/11 02:47:44;;;;;;;5.57;2.05;;;18.30;99.90;;;;;;5077093;28;20393;-68
2023/07/11 02:50:10;;;;;;;3.65;1.80;;;18.30;99.90;;;;;;5077620;28;20036;-68
2023/07/11 02:52:36;;;;;;;5.95;1.33;;;18.30;99.90;;;;;;5076887;28;20145;-68
2023/07/11 02:55:02;;;;;;;4.43;2.00;;;18.30;99.90;;;;;;5077381;28;20409;-68
2023/07/11 02:57:27;;;;;;;4.15;1.58;;;18.20;99.90;;;;;;5077127;28;20116;-69
2023/07/11 02:59:53;;;;;;;7.28;2.03;;;18.20;99.90;;;;;;5077481;28;20032;-69
2023/07/11 03:02:18;;;;;;;5.53;1.85;;;18.20;99.90;;;;;;5073174;28;20032;-69
2023/07/11 03:04:44;;;;;;;4.22;1.80;;;18.20;99.90;;;;;;5074120;28;20051;-69
2023/07/11 03:07:10;;;;;;;4.95;1.63;;;18.10;99.90;;;;;;5074341;28;20045;-69
2023/07/11 03:09:37;;;;;;;5.32;2.05;;;18.20;99.90;;;;;;5073944;28;20040;-69
2023/07/11 03:12:02;;;;;;;3.13;1.73;;;18.20;99.90;;;;;;5073578;28;20500;-68
2023/07/11 03:14:28;;;;;;;5.10;1.77;;;18.20;99.90;;;;;;5074173;28;20045;-69
2023/07/11 03:16:54;;;;;;;8.43;2.35;;;18.10;99.90;;;;;;5073875;28;20075;-68
2023/07/11 03:19:20;;;;;;;5.78;2.47;;;18.10;99.90;;;;;;5073797;28;20036;-69
2023/07/11 03:21:46;;;;;;;3.25;2.15;;;18.10;99.90;;;;;;5073436;28;20036;-69
2023/07/11 03:24:11;;;;;;;5.07;2.20;;;18.10;99.90;;;;;;5073773;28;20043;-68
2023/07/11 03:26:37;;;;;;;6.60;2.47;;;18.10;99.90;;;;;;5073682;28;20036;-68
2023/07/11 03:29:03;;;;;;;5.72;2.30;;;18.00;99.90;;;;;;5073356;28;20093;-68
2023/07/11 03:31:28;;;;;;;7.28;2.75;;;18.00;99.90;;;;;;5072991;28;20404;-69
2023/07/11 03:33:54;;;;;;;6.22;3.08;;;18.00;99.90;;;;;;5073632;28;20044;-69
2023/07/11 03:36:20;;;;;;;5.60;2.35;;;18.00;99.90;;;;;;5073688;28;20048;-68
2023/07/11 03:38:46;;;;;;;4.75;2.55;;;18.00;99.90;;;;;;5073349;28;20401;-68
2023/07/11 03:41:12;;;;;;;5.20;2.30;;;17.90;99.90;;;;;;5073062;28;20056;-69
2023/07/11 03:43:38;;;;;;;8.35;2.97;;;17.90;99.90;;;;;;5073465;28;20068;-69
2023/07/11 03:46:04;;;;;;;5.40;2.30;;;17.80;99.90;;;;;;5073439;28;20078;-69
2023/07/11 03:48:30;;;;;;;5.00;3.03;;;17.80;99.90;;;;;;5073222;28;20049;-68
2023/07/11 03:50:55;;;;;;;7.45;2.60;;;17.70;99.90;;;;;;5072941;28;20389;-68
2023/07/11 03:53:22;;;;;;;7.50;2.83;;;17.70;99.90;;;;;;5071622;28;20040;-68
2023/07/11 03:55:47;;;;;;;9.25;3.03;;;17.70;99.90;;;;;;5071834;28;20089;-69
2023/07/11 03:58:13;;;;;;;8.13;2.90;;;17.70;99.90;;;;;;5070440;28;20028;-68
2023/07/11 04:00:38;;;;;;;7.97;2.80;;;17.80;99.90;;;;;;5074367;28;20755;-68
2023/07/11 04:03:04;;;;;;;8.82;3.05;;;17.70;99.90;;;;;;5083626;28;20086;-69
2023/07/11 04:05:30;;;;;;;5.70;2.75;;;17.70;99.90;;;;;;5092640;28;20044;-68
2023/07/11 04:07:56;;;;;;;7.60;3.45;;;17.70;99.90;;;;;;5092345;28;20032;-69
2023/07/11 04:10:21;;;;;;;5.75;2.97;;;17.70;99.90;;;;;;5092658;28;20403;-68
2023/07/11 04:12:47;;;;;;;7.30;2.80;;;17.70;99.90;;;;;;5091008;28;20047;-69
2023/07/11 04:15:13;;;;;;;8.27;3.35;;;17.70;99.90;;;;;;5092778;28;20044;-69
2023/07/11 04:17:40;;;;;;;8.45;2.97;;;17.70;99.90;;;;;;5092925;28;20032;-69
2023/07/11 04:20:06;;;;;;;8.52;3.22;;;17.70;99.90;;;;;;5092987;28;20028;-69
2023/07/11 04:22:32;;;;;;;9.43;3.75;;;17.60;99.90;;;;;;5092344;28;20032;-69
2023/07/11 04:24:57;;;;;;;9.95;3.10;;;17.50;99.90;;;;;;5092916;28;20093;-69
2023/07/11 04:27:27;;;;;;;8.27;3.45;;;17.50;99.90;;;;;;5092508;28;20067;-69
2023/07/11 04:29:53;;;;;;;7.47;3.22;;;17.50;99.90;;;;;;5092700;28;20042;-69
2023/07/11 04:32:18;;;;;;;8.50;2.72;;;17.50;99.90;;;;;;5091093;28;20035;-69
2023/07/11 04:34:44;;;;;;;7.15;3.05;;;17.50;99.90;;;;;;5091240;28;20093;-69
2023/07/11 04:37:09;;;;;;;7.82;2.80;;;17.60;99.90;;;;;;5091609;28;20093;-69
2023/07/11 04:39:35;;;;;;;7.65;2.72;;;17.60;99.90;;;;;;5092221;28;20040;-69
2023/07/11 04:42:01;;;;;;;12.15;3.15;;;17.60;99.90;;;;;;5092132;28;20032;-69
2023/07/11 04:44:26;;;;;;;8.73;3.00;;;17.70;99.90;;;;;;5091363;28;20036;-68
2023/07/11 04:46:52;;;;;;;6.72;2.70;;;17.70;99.90;;;;;;5091201;28;20040;-69
2023/07/11 04:49:17;;;;;;;7.53;2.42;;;17.80;99.90;;;;;;5090822;28;20040;-69
2023/07/11 04:51:43;;;;;;;7.57;2.83;;;17.80;99.90;;;;;;5090641;28;20044;-69
2023/07/11 04:54:09;;;;;;;6.70;2.97;;;17.80;99.90;;;;;;5091151;28;20043;-69
2023/07/11 04:56:38;;;;;;;6.80;3.08;;;17.80;99.90;;;;;;5092147;28;20047;-67
2023/07/11 04:59:04;;;;;;;3.83;2.67;;;17.90;99.90;;;;;;5091449;28;20514;-67
2023/07/11 05:01:30;;;;;;;12.18;3.15;;;17.90;99.90;;;;;;5091437;28;20032;-67
2023/07/11 05:03:56;;;;;;;9.30;3.17;;;17.90;99.90;;;;;;5092112;28;20036;-67
2023/07/11 05:06:22;;;;;;;5.18;2.92;;;18.00;99.90;;;;;;5091834;28;20064;-66
2023/07/11 05:08:47;;;;;;;5.35;2.78;;;18.20;99.90;;;;;;5091464;28;20041;-67
2023/07/11 05:11:18;;;;;;;6.60;3.13;;;18.50;99.90;;;;;;5091377;28;20039;-70
2023/07/11 05:13:45;;;;;;;5.63;3.45;;;18.70;99.90;;;;;;5092069;28;20036;-67
2023/07/11 05:16:14;;;;;;;7.57;3.35;;;18.80;99.90;;;;;;5091968;28;20387;-67
2023/07/11 05:18:40;;;;;;;8.05;3.40;;;19.20;99.90;;;;;;5091546;28;20119;-67
2023/07/11 05:21:08;;;;;;;17.60;3.60;;;19.40;99.90;;;;;;5091238;28;20661;-67
2023/07/11 05:23:33;;;;;;;5.50;3.10;;;19.60;99.90;;;;;;5090126;28;20491;-69
2023/07/11 05:26:00;;;;;;;7.20;3.08;;;19.80;99.90;;;;;;5091096;28;20044;-69
2023/07/11 05:28:25;;;;;;;7.90;3.25;;;19.90;99.90;;;;;;5091672;28;20092;-69
2023/07/11 05:30:52;;;;;;;6.55;3.10;;;20.00;99.90;;;;;;5091491;28;20044;-68
2023/07/11 05:33:18;;;;;;;8.13;4.18;;;20.20;99.90;;;;;;5091630;28;20040;-69
2023/07/11 05:36:05;;;;;;;8.77;3.78;;;20.30;99.90;;;;;;5091688;28;20043;-67
2023/07/11 05:38:31;;;;;;;4.88;3.58;;;20.30;99.90;;;;;;5091114;28;20040;-67
2023/07/11 05:40:57;;;;;;;7.10;3.65;;;20.20;99.90;;;;;;5090110;28;20391;-69
2023/07/11 05:43:22;;;;;;;9.07;3.47;;;20.50;99.90;;;;;;5091324;28;20032;-67
2023/07/11 05:45:48;;;;;;;8.10;3.95;;;20.80;99.90;;;;;;5090014;28;20035;-67
2023/07/11 05:48:13;;;;;;;6.97;3.70;;;21.10;99.90;;;;;;5091221;28;20464;-67
2023/07/11 05:50:39;;;;;;;11.90;4.50;;;21.20;99.90;;;;;;5090971;28;20036;-67
2023/07/11 05:53:04;;;;;;;7.15;3.30;;;21.20;99.90;;;;;;5090962;28;20077;-68
2023/07/11 05:55:30;;;;;;;7.22;3.97;;;21.20;99.90;;;;;;5091348;28;20097;-68
2023/07/11 05:57:56;;;;;;;8.68;4.03;;;21.10;99.90;;;;;;5091035;28;20411;-67
2023/07/11 06:00:21;;;;;;;8.68;3.90;;;21.00;99.90;;;;;;5090137;28;20047;-67
2023/07/11 06:02:47;;;;;;;6.40;3.63;;;20.90;99.90;;;;;;5090892;28;20111;-67
2023/07/11 06:05:12;;;;;;;5.68;3.45;;;21.00;99.90;;;;;;5091178;28;20040;-67
2023/07/11 06:07:39;;;;;;;7.22;4.57;;;21.10;99.90;;;;;;5090830;28;20123;-67
2023/07/11 06:10:05;;;;;;;10.80;4.28;;;21.10;99.90;;;;;;5091339;28;20058;-67
2023/07/11 06:12:31;;;;;;;6.68;3.80;;;21.40;99.90;;;;;;5090604;28;20040;-67
2023/07/11 06:14:57;;;;;;;12.93;4.30;;;21.70;99.90;;;;;;5089664;28;20510;-67
2023/07/11 06:17:23;;;;;;;7.53;3.58;;;22.10;99.90;;;;;;5090848;28;20067;-69
2023/07/11 06:19:48;;;;;;;7.00;3.70;;;22.40;99.90;;;;;;5090980;28;20552;-67
2023/07/11 06:22:14;;;;;;;10.40;3.28;;;22.80;99.90;;;;;;5090457;28;20411;-67
2023/07/11 06:24:39;;;;;;;7.93;3.35;;;23.10;99.90;;;;;;5091400;28;20424;-66
2023/07/11 06:27:05;;;;;;;6.60;3.45;;;23.50;99.90;;;;;;5091295;28;20514;-66
2023/07/11 06:29:31;;;;;;;5.55;3.15;;;23.90;99.90;;;;;;5090644;28;20092;-67
2023/07/11 06:31:57;;;;;;;7.55;3.38;;;24.30;99.90;;;;;;5090527;28;20036;-67
2023/07/11 06:34:23;;;;;;;9.88;3.30;;;24.30;99.90;;;;;;5090810;28;20444;-66
2023/07/11 06:36:49;;;;;;;9.02;3.60;;;24.40;99.90;;;;;;5093110;28;20140;-66
2023/07/11 06:39:15;;;;;;;5.63;2.78;;;24.60;99.90;;;;;;5094816;28;20200;-66
2023/07/11 06:41:40;;;;;;;7.70;2.75;;;24.70;99.90;;;;;;5094476;28;20411;-66
2023/07/11 06:44:08;;;;;;;10.07;3.08;;;25.00;99.90;;;;;;5094915;28;20043;-66
2023/07/11 06:46:34;;;;;;;6.50;3.30;;;24.70;99.80;;;;;;5094912;28;20066;-67
2023/07/11 06:49:00;;;;;;;9.45;3.10;;;24.80;98.80;;;;;;5094398;28;20043;-66
2023/07/11 06:51:26;;;;;;;5.28;2.70;;;25.10;98.30;;;;;;5093958;28;20036;-65
2023/07/11 06:53:52;;;;;;;5.78;3.22;;;25.30;98.10;;;;;;5094674;28;20043;-66
2023/07/11 06:56:18;;;;;;;4.90;2.60;;;25.40;97.30;;;;;;5094683;28;20071;-66
2023/07/11 06:58:44;;;;;;;6.25;2.50;;;25.80;97.10;;;;;;5094311;28;20060;-66
2023/07/11 07:01:11;;;;;;;7.78;2.50;;;25.90;96.60;;;;;;5093981;28;20039;-67
2023/07/11 07:03:36;;;;;;;5.50;2.80;;;26.10;96.50;;;;;;5094038;28;20514;-67
2023/07/11 07:06:08;;;;;;;9.88;2.83;;;26.30;95.80;;;;;;5094334;28;20039;-67
2023/07/11 07:08:34;;;;;;;5.18;2.55;;;26.60;94.70;;;;;;5094150;28;20036;-67
2023/07/11 07:11:00;;;;;;;4.85;2.25;;;26.60;94.20;;;;;;5094081;28;20576;-67
2023/07/11 07:13:26;;;;;;;5.88;2.47;;;26.70;93.80;;;;;;5094031;28;20514;-67
2023/07/11 07:15:54;;;;;;;4.55;2.35;;;26.70;93.10;;;;;;5094271;28;20044;-67
2023/07/11 07:18:20;;;;;;;5.22;2.40;;;26.70;93.30;;;;;;5093823;28;20528;-68
2023/07/11 07:20:51;;;;;;;5.68;2.58;;;26.80;93.20;;;;;;5093570;28;20040;-67
2023/07/11 07:23:17;;;;;;;4.07;2.00;;;27.00;92.10;;;;;;5094127;28;20070;-68
2023/07/11 07:25:50;;;;;;;4.70;2.13;;;27.30;92.20;;;;;;5094174;28;20094;-67
2023/07/11 07:28:15;;;;;;;;;;;27.20;87.60;;;;;;5094255;28;20043;-67
2023/07/11 07:30:48;;;;;;;4.88;1.92;;;27.30;89.80;;;;;;5093659;28;19916;-67
2023/07/11 07:33:15;;;;;;;4.90;2.42;;;27.30;91.20;;;;;;5077685;28;20120;-67
2023/07/11 07:35:41;;;;;;;7.10;2.90;;;27.30;90.60;;;;;;5064170;28;20041;-67
2023/07/11 07:38:09;;;;;;;5.15;2.50;;;27.20;90.70;;;;;;5068105;28;20071;-67
2023/07/11 07:40:35;;;;;;;6.47;2.60;;;27.10;90.60;;;;;;5067715;28;20090;-67
2023/07/11 07:43:01;;;;;;;7.10;2.47;;;27.00;90.00;;;;;;5063438;28;20036;-67
2023/07/11 07:45:27;;;;;;;4.07;2.58;;;26.70;90.00;;;;;;5061807;28;20459;-67
2023/07/11 07:47:52;;;;;;;10.75;2.35;;;26.60;91.40;;;;;;5060275;28;20124;-67
2023/07/11 07:50:18;;;;;;;4.82;2.75;;;26.50;91.90;;;;;;5035457;28;20072;-67
2023/07/11 07:52:43;;;;;;;6.50;2.35;;;26.40;92.40;;;;;;5052850;28;20052;-68
2023/07/11 07:55:09;;;;;;;5.97;2.13;;;26.30;92.20;;;;;;5053215;28;20099;-67
2023/07/11 07:57:35;;;;;;;5.93;2.40;;;26.20;92.40;;;;;;5052951;28;20535;-69
2023/07/11 08:00:02;;;;;;;4.00;2.17;;;26.10;92.90;;;;;;5067781;28;20059;-67
2023/07/11 08:02:31;;;;;;;5.35;2.30;;;26.00;92.80;;;;;;5082945;28;20040;-67
2023/07/11 08:04:57;;;;;;;3.70;1.88;;;25.90;93.00;;;;;;5073324;28;20044;-67
2023/07/11 08:07:24;;;;;;;5.20;3.08;;;25.90;93.70;;;;;;5072898;28;20044;-67
2023/07/11 08:09:49;;;;;;;4.22;1.77;;;26.00;93.90;;;;;;5072948;28;20040;-67
2023/07/11 08:12:15;;;;;;;5.70;2.20;;;26.10;93.60;;;;;;5065859;28;20132;-67
2023/07/11 08:14:41;;;;;;;4.65;2.28;;;26.30;93.40;;;;;;5069213;28;20025;-67
2023/07/11 08:17:08;;;;;;;5.95;2.67;;;26.40;92.80;;;;;;5073055;28;20036;-67
2023/07/11 08:19:34;;;;;;;6.15;2.72;;;26.40;92.80;;;;;;5072437;28;20511;-67
2023/07/11 08:22:00;;;;;;;5.10;2.42;;;26.40;92.50;;;;;;5065855;28;20055;-67
2023/07/11 08:24:26;;;;;;;3.10;2.25;;;26.40;91.80;;;;;;5061739;28;20492;-67
2023/07/11 08:26:52;;;;;;;5.50;2.97;;;26.60;91.40;;;;;;5061987;28;20079;-68
2023/07/11 08:29:18;;;;;;;5.95;2.55;;;26.80;90.80;;;;;;5062595;28;20037;-67
2023/07/11 08:31:43;;;;;;;5.03;2.80;;;27.00;90.70;;;;;;5060834;28;20561;-67
2023/07/11 08:34:09;;;;;;;5.00;2.20;;;27.20;90.10;;;;;;5054252;28;20045;-68
2023/07/11 08:36:37;;;;;;;6.07;2.20;;;27.10;90.00;;;;;;5051254;28;20040;-67
2023/07/11 08:39:03;;;;;;;7.22;2.50;;;27.20;89.90;;;;;;5050895;28;20051;-67
2023/07/11 08:41:47;;;;;;;7.40;2.53;;;27.10;89.80;;;;;;5051948;28;20064;-67
2023/07/11 08:44:44;;;;;;;7.38;2.40;;;27.30;89.50;;;;;;5052532;28;20040;-67
2023/07/11 08:47:25;;;;;;;4.57;2.20;;;27.30;88.00;;;;;;5014923;28;20075;-68
2023/07/11 08:49:50;;;;;;;5.82;1.92;;;27.30;87.00;;;;;;5052401;28;20109;-67
2023/07/11 08:52:18;;;;;;;6.78;2.30;;;27.40;86.00;;;;;;5051426;28;20464;-67
2023/07/11 08:55:05;;;;;;;6.13;1.98;;;27.60;84.10;;;;;;5050315;28;20076;-71
2023/07/11 08:57:37;;;;;;;4.70;2.10;;;28.20;83.40;;;;;;5049764;28;20159;-70
2023/07/11 09:00:18;;;;;;;6.10;2.35;;;28.10;84.30;;;;;;5051171;28;20623;-71
2023/07/11 09:02:56;;;;;;;6.72;2.35;;;28.30;79.60;;;;;;5051353;28;20037;-71
2023/07/11 09:05:39;;;;;;;5.75;1.92;;;28.40;80.30;;;;;;5052107;28;20122;-70
2023/07/11 09:08:04;;;;;;;;;;;28.40;80.50;;;;;;5052219;28;20052;-70
2023/07/11 09:10:48;;;;;;;6.80;2.13;;;28.20;76.20;;;;;;5051560;28;20300;-70
2023/07/11 09:13:38;;;;;;;4.00;1.77;;;28.20;80.20;;;;;;5050934;28;20202;-70
2023/07/11 09:16:07;;;;;;;4.70;2.00;;;28.10;80.20;;;;;;5050831;28;20037;-71
2023/07/11 09:18:43;;;;;;;6.43;2.10;;;28.10;78.90;;;;;;5050976;28;20047;-70
2023/07/11 09:21:37;;;;;;;6.60;1.85;;;28.20;76.80;;;;;;5051350;28;20527;-70
2023/07/11 09:24:31;;;;;;;5.90;2.22;;;28.40;78.50;;;;;;5051398;28;20041;-70
2023/07/11 09:27:04;;;;;;;4.72;2.22;;;28.60;79.60;;;;;;5051614;28;20044;-71
2023/07/11 09:29:31;;;;;;;6.15;2.25;;;28.80;78.30;;;;;;5051035;28;20045;-70
2023/07/11 09:31:59;;;;;;;4.75;1.90;;;28.90;75.50;;;;;;5051305;28;20098;-71
2023/07/11 09:34:35;;;;;;;2.97;1.70;;;29.00;74.10;;;;;;5051350;28;20040;-71
2023/07/11 09:37:11;;;;;;;4.78;1.80;;;29.00;72.80;;;;;;5051606;28;20037;-70
2023/07/11 09:39:52;;;;;;;3.92;1.50;;;29.20;72.80;;;;;;5051327;28;20033;-71
2023/07/11 09:42:54;;;;;;;4.97;2.00;;;29.10;70.60;;;;;;5049650;28;20044;-71
2023/07/11 09:45:24;;;;;;;5.35;1.80;;;29.10;72.30;;;;;;5051455;28;20052;-71
2023/07/11 09:48:03;;;;;;;3.47;1.70;;;29.00;74.20;;;;;;5051471;28;20045;-70
2023/07/11 09:50:45;;;;;;;7.40;2.05;;;28.90;72.10;;;;;;5050953;28;20496;-70
2023/07/11 09:53:20;;;;;;;3.75;1.67;;;28.90;69.40;;;;;;5114676;22;20052;-71
2023/07/11 09:55:46;;;;;;;4.40;1.48;;;28.90;68.30;;;;;;5110596;28;20044;-71
2023/07/11 09:58:16;;;;;;;5.47;1.73;;;29.20;67.20;;;;;;5110009;28;20130;-71
2023/07/11 10:00:52;;;;;;;2.42;1.77;;;29.30;66.80;;;;;;5110357;28;20107;-71
2023/07/11 10:03:20;;;;;;;5.05;2.20;;;29.20;61.60;;;;;;5110578;28;20092;-71
2023/07/11 10:05:48;;;;;;;2.78;1.38;;;29.10;65.90;;;;;;5110585;28;20554;-71
2023/07/11 10:08:28;;;;;;;3.40;1.52;;;28.90;67.50;;;;;;5110217;28;20042;-71
2023/07/11 10:11:01;;;;;;;6.07;1.70;;;28.90;68.90;;;;;;5112123;28;20130;-71
2023/07/11 10:13:28;;;;;;;2.95;1.23;;;28.90;67.90;;;;;;5116157;28;20122;-71
2023/07/11 10:15:55;;;;;;;6.00;1.73;;;28.80;68.40;;;;;;5115831;28;20052;-71
2023/07/11 10:18:29;;;;;;;4.00;1.42;;;28.60;67.80;;;;;;5115495;28;20372;-71
2023/07/11 10:21:14;;;;;;;6.50;2.13;;;28.20;68.00;;;;;;5115321;28;20119;-71
2023/07/11 10:23:42;;;;;;;4.30;1.60;;;27.90;66.30;;;;;;5115806;28;20040;-71
2023/07/11 10:26:11;;;;;;;2.85;1.48;;;27.90;69.70;;;;;;5115650;28;20040;-71
2023/07/11 10:28:42;;;;;;;4.82;2.10;;;27.90;72.40;;;;;;5097312;28;20047;-71
2023/07/11 10:31:17;;;;;;;5.10;1.95;;;27.90;70.00;;;;;;5115186;28;20089;-71
2023/07/11 10:34:13;;;;;;;5.97;1.70;;;28.00;71.20;;;;;;5115776;28;20036;-71
2023/07/11 10:36:49;;;;;;;5.85;1.75;;;28.00;70.60;;;;;;5115567;28;20082;-70
2023/07/11 10:39:20;;;;;;;6.40;1.70;;;28.00;70.50;;;;;;5096808;28;20055;-70
2023/07/11 10:41:54;;;;;;;5.40;1.80;;;28.00;71.50;;;;;;5114923;28;20046;-71
2023/07/11 10:44:34;;;;;;;5.32;2.17;;;27.90;73.50;;;;;;5115539;28;20039;-71
2023/07/11 10:47:01;;;;;;;3.17;1.83;;;27.90;72.80;;;;;;5115115;28;20035;-70
2023/07/11 10:49:35;;;;;;;5.45;2.10;;;27.90;73.30;;;;;;5114930;28;20149;-70
2023/07/11 10:52:19;;;;;;;3.78;1.92;;;27.70;76.00;;;;;;5114592;28;20036;-71
2023/07/11 10:55:05;;;;;;;5.70;2.15;;;27.60;75.00;;;;;;5115050;28;20670;-70
2023/07/11 10:57:45;;;;;;;5.20;1.80;;;27.50;76.90;;;;;;5096555;28;20051;-70
2023/07/11 11:00:21;;;;;;;5.93;1.92;;;27.40;76.90;;;;;;5115033;28;20434;-71
2023/07/11 11:02:55;;;;;;;6.60;2.22;;;27.60;80.20;;;;;;5114896;28;20100;-71
2023/07/11 11:05:31;;;;;;;6.75;2.10;;;27.70;84.00;;;;;;5115144;28;20046;-71
2023/07/11 11:08:11;;;;;;;4.95;1.95;;;27.60;83.60;;;;;;5114783;28;20376;-70
2023/07/11 11:10:55;;;;;;;5.30;1.75;;;27.40;82.80;;;;;;5114391;28;20036;-71
2023/07/11 11:14:00;;;;;;;9.23;2.15;;;27.50;84.40;;;;;;5114907;28;20046;-71
2023/07/11 11:16:41;;;;;;;6.28;2.15;;;27.20;86.00;;;;;;5046905;28;20055;-71
2023/07/11 11:19:34;;;;;;;5.40;2.28;;;27.20;86.80;;;;;;5114311;28;20486;-70
2023/07/11 11:22:11;;;;;;;4.00;1.98;;;27.10;91.40;;;;;;5113825;28;20142;-71
2023/07/11 11:25:00;;;;;;;8.20;2.20;;;26.90;90.90;;;;;;5096168;28;20039;-71
2023/07/11 11:27:48;;;;;;;3.88;2.15;;;26.90;87.80;;;;;;5114135;28;20043;-71
2023/07/11 11:30:30;;;;;;;5.32;2.53;;;26.90;89.10;;;;;;5096452;28;20046;-70
2023/07/11 11:33:01;;;;;;;3.55;1.55;;;27.00;86.60;;;;;;5114546;28;20124;-71
2023/07/11 11:35:48;;;;;;;7.18;1.45;;;27.10;87.80;;;;;;5095976;28;20044;-70
2023/07/11 11:38:32;;;;;;;3.28;1.50;;;27.20;86.40;;;;;;5113933;28;20039;-71
2023/07/11 11:41:08;;;;;;;6.03;1.70;;;27.30;86.00;;;;;;5114062;28;20039;-70
2023/07/11 11:43:35;;;;;;;2.97;1.70;;;27.50;83.40;;;;;;5114432;28;20147;-71
2023/07/11 11:46:04;;;;;;;5.88;1.90;;;27.60;79.50;;;;;;5114222;28;20047;-70
2023/07/11 11:48:31;;;;;;;2.92;2.25;;;27.70;77.20;;;;;;5113714;28;20040;-71
2023/07/11 11:50:59;;;;;;;5.18;1.65;;;27.90;77.30;;;;;;5113828;28;20176;-71
2023/07/11 11:53:44;;;;;;;3.75;1.48;;;28.00;76.00;;;;;;5113812;28;20053;-71
2023/07/11 11:56:13;;;;;;;4.07;1.67;;;28.10;77.90;;;;;;5095850;28;20042;-71
2023/07/11 11:59:06;;;;;;;3.33;1.77;;;28.20;75.70;;;;;;5113373;28;20514;-71
2023/07/11 12:01:46;;;;;;;7.90;2.08;;;28.10;75.40;;;;;;5113719;28;20039;-70
2023/07/11 12:04:30;;;;;;;4.45;1.80;;;28.20;73.90;;;;;;5104100;28;20036;-72
2023/07/11 12:07:01;;;;;;;3.80;2.00;;;28.60;71.50;;;;;;5074951;28;20101;-72
2023/07/11 12:09:33;;;;;;;3.57;1.40;;;28.60;69.10;;;;;;5075100;28;20139;-71
2023/07/11 12:12:21;;;;;;;6.53;1.75;;;28.70;66.50;;;;;;5093055;28;20044;-71
2023/07/11 12:14:50;;;;;;;7.32;2.15;;;28.90;69.00;;;;;;5075134;28;20464;-72
2023/07/11 12:17:34;;;;;;;3.78;1.45;;;28.90;68.50;;;;;;5092843;28;20044;-71
2023/07/11 12:19:59;;;;;;;3.17;1.60;;;28.90;68.40;;;;;;5093259;28;20036;-71
2023/07/11 12:22:26;;;;;;;3.60;1.70;;;28.80;69.30;;;;;;5098814;28;20089;-71
2023/07/11 12:25:23;;;;;;;6.03;1.77;;;29.00;69.60;;;;;;5107633;28;20071;-71
2023/07/11 12:28:02;;;;;;;4.28;1.58;;;29.00;67.00;;;;;;5094683;28;20118;-72
2023/07/11 12:30:36;;;;;;;6.25;2.10;;;29.10;68.70;;;;;;5113174;28;20046;-72
2023/07/11 12:33:32;;;;;;;2.38;1.23;;;29.00;67.90;;;;;;5078232;28;20051;-72
2023/07/11 12:36:26;;;;;;;4.05;1.55;;;28.90;65.60;;;;;;5113166;28;20537;-71
2023/07/11 12:39:02;;;;;;;8.75;2.30;;;28.80;65.10;;;;;;5113006;28;20035;-72
2023/07/11 12:42:03;;;;;;;8.45;2.28;;;28.80;66.40;;;;;;5106561;28;20028;-71
2023/07/11 12:44:32;;;;;;;3.22;1.60;;;28.60;66.30;;;;;;5094627;28;20089;-71
2023/07/11 12:47:01;;;;;;;3.25;1.40;;;28.70;65.60;;;;;;5094576;28;20543;-72
2023/07/11 12:49:29;;;;;;;4.25;1.63;;;28.80;66.50;;;;;;5112447;28;20111;-72
2023/07/11 12:52:06;;;;;;;6.40;1.85;;;28.70;69.20;;;;;;5094191;28;20035;-72
2023/07/11 12:54:31;;;;;;;3.63;1.90;;;28.80;69.40;;;;;;5094462;28;20495;-71
2023/07/11 12:56:57;;;;;;;5.32;1.73;;;28.70;69.80;;;;;;5112733;28;20097;-72
2023/07/11 12:59:28;;;;;;;3.83;1.70;;;28.70;69.10;;;;;;5112327;28;20096;-71
2023/07/11 13:01:57;;;;;;;4.70;1.58;;;28.60;69.40;;;;;;5100958;28;20063;-72